Time;durP1;ratioP1;P1;durP2;ratioP2;P2;SDS_P1;SDS_P2;PMS_P1;PMS_P2;Temp;Humidity;BMP_temperature;BMP_pressure;BME280_temperature;BME280_humidity;BME280_pressure;Samples;Min_cycle;Max_cycle;Signal;HPM_P1;HPM_P2
2021/06/26 00:02:15;;;;;;;3.95;2.65;;;15.00;99.90;;;;;;5045546;28;20202;-77
2021/06/26 00:04:42;;;;;;;6.47;3.90;;;15.10;99.90;;;;;;5046926;28;20529;-77
2021/06/26 00:07:08;;;;;;;5.60;2.80;;;15.10;99.90;;;;;;5047330;28;20185;-77
2021/06/26 00:09:34;;;;;;;7.82;3.58;;;15.10;99.90;;;;;;5047330;28;20702;-77
2021/06/26 00:12:00;;;;;;;5.10;2.80;;;15.20;99.90;;;;;;5046933;28;20514;-76
2021/06/26 00:14:25;;;;;;;6.60;3.70;;;15.20;99.90;;;;;;5047815;28;20203;-76
2021/06/26 00:16:51;;;;;;;3.63;1.90;;;15.30;99.90;;;;;;5029479;28;20538;-75
2021/06/26 00:19:17;;;;;;;5.20;3.17;;;15.40;99.90;;;;;;5046792;28;20228;-76
2021/06/26 00:21:43;;;;;;;7.75;3.70;;;15.50;99.90;;;;;;5047651;28;20220;-77
2021/06/26 00:24:08;;;;;;;4.82;2.50;;;15.50;99.90;;;;;;5046448;28;20270;-76
2021/06/26 00:26:34;;;;;;;6.55;2.60;;;15.50;99.90;;;;;;5046222;28;20190;-76
2021/06/26 00:29:00;;;;;;;6.35;2.83;;;15.50;99.90;;;;;;5029401;28;20671;-76
2021/06/26 00:31:25;;;;;;;5.82;2.92;;;15.60;99.90;;;;;;5048062;28;20197;-78
2021/06/26 00:33:51;;;;;;;12.63;2.25;;;15.50;99.90;;;;;;5029945;28;20592;-76
2021/06/26 00:36:17;;;;;;;3.60;2.30;;;15.50;99.90;;;;;;5046982;28;20193;-76
2021/06/26 00:38:42;;;;;;;4.13;2.22;;;15.50;99.90;;;;;;5047692;28;20206;-76
2021/06/26 00:41:08;;;;;;;8.07;3.10;;;15.40;99.90;;;;;;5038545;28;20683;-77
2021/06/26 00:43:34;;;;;;;6.47;2.45;;;15.30;99.90;;;;;;5047929;28;20221;-76
2021/06/26 00:46:00;;;;;;;5.22;2.70;;;15.30;99.90;;;;;;5029584;28;20193;-76
2021/06/26 00:48:26;;;;;;;6.05;3.10;;;15.40;99.90;;;;;;5045105;28;20736;-76
2021/06/26 00:50:52;;;;;;;4.40;2.40;;;15.40;99.90;;;;;;5046609;28;20256;-73
2021/06/26 00:53:18;;;;;;;4.47;2.83;;;15.30;99.90;;;;;;5046064;28;20674;-76
2021/06/26 00:55:52;;;;;;;5.57;2.72;;;15.20;99.90;;;;;;5045528;28;20197;-74
2021/06/26 00:58:21;;;;;;;5.18;1.85;;;15.30;99.90;;;;;;5029116;28;20200;-75
2021/06/26 01:00:48;;;;;;;12.60;3.78;;;15.20;99.90;;;;;;5046627;28;20232;-75
2021/06/26 01:03:13;;;;;;;4.55;2.60;;;15.20;99.90;;;;;;5055438;22;20240;-73
2021/06/26 01:05:39;;;;;;;5.60;3.15;;;15.20;99.90;;;;;;5046201;28;20193;-70
2021/06/26 01:08:05;;;;;;;3.67;2.35;;;15.20;99.90;;;;;;5047158;28;20193;-70
2021/06/26 01:10:30;;;;;;;4.28;2.40;;;15.20;99.90;;;;;;5029287;28;20201;-73
2021/06/26 01:12:57;;;;;;;7.38;2.42;;;15.20;99.90;;;;;;5049033;28;20193;-73
2021/06/26 01:15:23;;;;;;;4.75;2.80;;;15.20;99.90;;;;;;5027696;28;20653;-70
2021/06/26 01:17:49;;;;;;;9.05;3.53;;;15.20;99.90;;;;;;5029089;28;20284;-73
2021/06/26 01:20:15;;;;;;;10.70;4.50;;;15.20;99.90;;;;;;5047399;28;20233;-73
2021/06/26 01:22:54;;;;;;;11.40;5.03;;;15.30;99.90;;;;;;5046104;28;21007;-72
2021/06/26 01:25:22;;;;;;;12.27;4.28;;;15.20;99.90;;;;;;5045150;28;20709;-72
2021/06/26 01:27:48;;;;;;;5.07;3.67;;;15.20;99.90;;;;;;5052311;28;20207;-73
2021/06/26 01:30:16;;;;;;;8.57;4.35;;;15.20;99.90;;;;;;5056087;28;20192;-73
2021/06/26 01:32:42;;;;;;;7.63;4.35;;;15.20;99.90;;;;;;5052423;28;20243;-74
2021/06/26 01:35:09;;;;;;;9.13;4.53;;;15.20;99.90;;;;;;5031851;28;20189;-71
2021/06/26 01:37:42;;;;;;;14.80;4.78;;;15.10;99.90;;;;;;5030708;28;20198;-73
2021/06/26 01:40:09;;;;;;;7.30;3.88;;;15.10;99.90;;;;;;5046936;28;20255;-73
2021/06/26 01:42:35;;;;;;;8.57;4.20;;;15.00;99.90;;;;;;5047338;28;20189;-73
2021/06/26 01:45:01;;;;;;;11.15;3.92;;;15.00;99.90;;;;;;5051140;28;20199;-73
2021/06/26 01:47:26;;;;;;;8.07;4.72;;;15.00;99.90;;;;;;5029898;28;20282;-73
2021/06/26 01:49:52;;;;;;;10.95;4.32;;;14.90;99.90;;;;;;5048161;28;20200;-73
2021/06/26 01:52:17;;;;;;;17.42;3.83;;;14.90;99.90;;;;;;5047118;28;20280;-73
2021/06/26 01:54:43;;;;;;;9.88;4.30;;;14.90;99.90;;;;;;5045011;28;20238;-73
2021/06/26 01:57:10;;;;;;;9.85;4.22;;;14.90;99.90;;;;;;5047484;28;20280;-72
2021/06/26 01:59:36;;;;;;;13.52;4.47;;;14.90;99.90;;;;;;5028462;28;20221;-73
2021/06/26 02:02:03;;;;;;;7.32;4.35;;;14.80;99.90;;;;;;5026148;28;20197;-73
2021/06/26 02:04:29;;;;;;;6.72;4.10;;;14.90;99.90;;;;;;5043728;28;20204;-73
2021/06/26 02:06:54;;;;;;;7.57;3.67;;;14.80;99.90;;;;;;5028769;28;20687;-73
2021/06/26 02:09:20;;;;;;;7.47;4.28;;;14.90;99.90;;;;;;5046967;28;20550;-73
2021/06/26 02:11:46;;;;;;;7.05;3.53;;;14.80;99.90;;;;;;5049536;28;20213;-73
2021/06/26 02:14:12;;;;;;;8.75;4.45;;;14.80;99.90;;;;;;5045857;28;20212;-73
2021/06/26 02:16:38;;;;;;;9.27;4.20;;;14.70;99.90;;;;;;5048074;28;20828;-73
2021/06/26 02:19:04;;;;;;;12.90;4.40;;;14.70;99.90;;;;;;5050800;28;20337;-73
2021/06/26 02:21:30;;;;;;;7.03;3.10;;;14.70;99.90;;;;;;5029658;28;20224;-73
2021/06/26 02:23:55;;;;;;;5.72;3.60;;;14.70;99.90;;;;;;5048159;28;20313;-73
2021/06/26 02:26:21;;;;;;;5.10;3.10;;;14.70;99.90;;;;;;5045553;28;20201;-73
2021/06/26 02:28:47;;;;;;;5.72;2.75;;;14.70;99.90;;;;;;5046952;28;20264;-73
2021/06/26 02:31:13;;;;;;;5.07;3.45;;;14.70;99.90;;;;;;5028659;28;20222;-73
2021/06/26 02:33:39;;;;;;;4.68;2.88;;;14.70;99.90;;;;;;5049519;28;20197;-73
2021/06/26 02:36:05;;;;;;;7.90;3.85;;;14.70;99.90;;;;;;5028787;28;20674;-73
2021/06/26 02:38:31;;;;;;;8.18;2.88;;;14.80;99.90;;;;;;5044248;28;20232;-73
2021/06/26 02:40:56;;;;;;;4.93;2.58;;;14.80;99.90;;;;;;5035916;28;20225;-73
2021/06/26 02:43:22;;;;;;;3.95;2.85;;;14.90;99.90;;;;;;5050701;28;20205;-73
2021/06/26 02:45:48;;;;;;;7.55;2.80;;;14.90;99.90;;;;;;5045871;28;20272;-73
2021/06/26 02:48:14;;;;;;;5.00;2.78;;;14.90;99.90;;;;;;5048577;28;20201;-73
2021/06/26 02:50:41;;;;;;;3.53;2.53;;;14.90;99.90;;;;;;5052274;28;20197;-73
2021/06/26 02:53:07;;;;;;;7.38;3.45;;;14.90;99.90;;;;;;5051551;28;20197;-73
2021/06/26 02:55:33;;;;;;;5.13;2.65;;;15.10;99.90;;;;;;5051619;28;20724;-73
2021/06/26 02:57:58;;;;;;;6.55;2.92;;;15.40;99.90;;;;;;5034460;28;20189;-73
2021/06/26 03:00:25;;;;;;;7.47;3.38;;;15.60;99.90;;;;;;5048824;28;20205;-73
2021/06/26 03:02:51;;;;;;;4.50;2.35;;;15.70;99.90;;;;;;5049502;28;20221;-74
2021/06/26 03:05:17;;;;;;;4.35;2.70;;;15.90;99.90;;;;;;5048199;28;20220;-73
2021/06/26 03:07:53;;;;;;;3.58;2.30;;;16.00;99.90;;;;;;5054380;28;20540;-73
2021/06/26 03:10:20;;;;;;;4.00;2.53;;;16.10;99.90;;;;;;5050576;28;20208;-73
2021/06/26 03:12:46;;;;;;;4.53;2.50;;;16.20;99.90;;;;;;5049035;28;20559;-73
2021/06/26 03:15:13;;;;;;;5.05;3.65;;;16.40;99.90;;;;;;5047083;28;20205;-73
2021/06/26 03:17:39;;;;;;;4.80;2.10;;;16.40;99.90;;;;;;5050736;28;20192;-73
2021/06/26 03:20:07;;;;;;;5.75;2.42;;;16.50;99.90;;;;;;5054076;28;20574;-73
2021/06/26 03:22:33;;;;;;;4.75;2.72;;;16.60;99.90;;;;;;5052588;28;20737;-72
2021/06/26 03:24:58;;;;;;;2.88;2.13;;;16.70;99.90;;;;;;5036907;28;20281;-73
2021/06/26 03:27:24;;;;;;;6.57;2.60;;;16.80;99.90;;;;;;5051709;28;20644;-73
2021/06/26 03:29:50;;;;;;;5.18;3.10;;;16.80;99.90;;;;;;5050103;28;20199;-73
2021/06/26 03:32:15;;;;;;;3.72;2.63;;;16.80;99.90;;;;;;5057450;28;20284;-73
2021/06/26 03:34:41;;;;;;;6.10;2.88;;;16.90;99.90;;;;;;5034339;28;20197;-73
2021/06/26 03:37:07;;;;;;;4.50;2.65;;;16.90;99.90;;;;;;5053187;28;21660;-73
2021/06/26 03:39:33;;;;;;;5.22;2.50;;;16.90;99.90;;;;;;5049645;28;20208;-73
2021/06/26 03:41:58;;;;;;;3.63;2.53;;;17.00;99.90;;;;;;5031644;28;20554;-73
2021/06/26 03:44:24;;;;;;;4.68;2.80;;;17.00;99.90;;;;;;5031368;28;20204;-73
2021/06/26 03:46:50;;;;;;;2.78;1.80;;;17.00;99.90;;;;;;5028781;28;20230;-73
2021/06/26 03:49:15;;;;;;;6.13;2.90;;;17.00;99.90;;;;;;5049309;28;20193;-73
2021/06/26 03:51:41;;;;;;;4.47;2.67;;;17.10;99.90;;;;;;5052735;28;20205;-73
2021/06/26 03:54:07;;;;;;;2.72;1.85;;;17.20;99.90;;;;;;5046882;28;20271;-73
2021/06/26 03:56:32;;;;;;;4.00;2.20;;;17.20;99.90;;;;;;5049769;28;20307;-73
2021/06/26 03:59:00;;;;;;;4.22;2.42;;;17.30;99.90;;;;;;5046175;28;20281;-73
2021/06/26 04:01:26;;;;;;;3.42;2.40;;;17.30;99.90;;;;;;5056473;28;20206;-73
2021/06/26 04:03:52;;;;;;;2.55;1.67;;;17.30;99.90;;;;;;5047307;28;20221;-74
2021/06/26 04:06:17;;;;;;;3.95;2.60;;;17.40;99.90;;;;;;5046973;28;20686;-73
2021/06/26 04:08:43;;;;;;;5.72;2.63;;;17.30;99.90;;;;;;5052656;28;20225;-73
2021/06/26 04:11:09;;;;;;;2.72;1.80;;;17.40;99.90;;;;;;5049694;28;20250;-73
2021/06/26 04:13:35;;;;;;;3.47;1.92;;;17.40;99.90;;;;;;5049013;28;20208;-73
2021/06/26 04:16:01;;;;;;;3.58;2.30;;;17.30;99.90;;;;;;5030988;28;20190;-73
2021/06/26 04:18:26;;;;;;;6.43;2.58;;;17.30;99.90;;;;;;5052942;28;20280;-73
2021/06/26 04:20:52;;;;;;;3.67;2.10;;;17.30;99.90;;;;;;5049312;28;20636;-73
2021/06/26 04:23:18;;;;;;;4.20;2.60;;;17.30;99.90;;;;;;5049652;28;20718;-73
2021/06/26 04:25:47;;;;;;;4.47;2.70;;;17.20;99.90;;;;;;5054899;28;20259;-73
2021/06/26 04:28:13;;;;;;;1.85;1.48;;;17.20;99.90;;;;;;5030629;28;20603;-73
2021/06/26 04:30:39;;;;;;;9.52;2.22;;;17.20;99.90;;;;;;5048091;28;20267;-73
2021/06/26 04:33:05;;;;;;;4.60;2.80;;;17.20;99.90;;;;;;5056975;28;20695;-73
2021/06/26 04:35:31;;;;;;;2.60;1.70;;;17.20;99.90;;;;;;5049529;28;20205;-73
2021/06/26 04:37:58;;;;;;;8.77;2.67;;;17.30;99.90;;;;;;5053199;28;20198;-73
2021/06/26 04:40:23;;;;;;;5.15;2.53;;;17.30;99.90;;;;;;5030633;28;20545;-73
2021/06/26 04:42:49;;;;;;;3.33;2.13;;;17.30;99.90;;;;;;5048094;28;20189;-73
2021/06/26 04:45:15;;;;;;;4.20;2.63;;;17.40;99.90;;;;;;5047727;28;20212;-73
2021/06/26 04:47:43;;;;;;;4.45;2.30;;;17.40;99.90;;;;;;5048284;28;20256;-73
2021/06/26 04:50:10;;;;;;;3.80;1.90;;;17.40;99.90;;;;;;5047676;28;20201;-73
2021/06/26 04:52:38;;;;;;;3.40;2.10;;;17.40;99.90;;;;;;5048990;28;20263;-73
2021/06/26 04:55:04;;;;;;;4.50;1.85;;;17.40;99.90;;;;;;5048086;28;20296;-73
2021/06/26 04:57:30;;;;;;;3.80;2.28;;;17.40;99.90;;;;;;5048226;28;20297;-73
2021/06/26 04:59:56;;;;;;;2.78;1.80;;;17.40;99.90;;;;;;5031587;28;20960;-73
2021/06/26 05:02:21;;;;;;;2.05;1.15;;;17.50;99.90;;;;;;5051750;28;20241;-73
2021/06/26 05:04:50;;;;;;;1.75;1.45;;;17.50;99.90;;;;;;5048023;28;20643;-74
2021/06/26 05:07:15;;;;;;;2.58;1.63;;;17.60;99.90;;;;;;5049932;28;20185;-73
2021/06/26 05:09:41;;;;;;;2.83;1.80;;;17.60;99.90;;;;;;5047774;28;20207;-73
2021/06/26 05:12:08;;;;;;;2.13;1.30;;;17.70;99.90;;;;;;5049533;28;20190;-73
2021/06/26 05:14:33;;;;;;;2.92;1.80;;;17.70;99.90;;;;;;5029880;28;20206;-73
2021/06/26 05:16:59;;;;;;;3.25;1.73;;;17.80;99.90;;;;;;5050761;28;20238;-73
2021/06/26 05:19:25;;;;;;;2.03;1.52;;;17.90;99.90;;;;;;5047857;28;20523;-73
2021/06/26 05:21:50;;;;;;;2.42;1.60;;;18.00;99.90;;;;;;5048311;28;20284;-73
2021/06/26 05:24:16;;;;;;;2.83;1.98;;;18.10;99.90;;;;;;5046722;28;20196;-73
2021/06/26 05:26:43;;;;;;;3.67;2.15;;;18.10;99.90;;;;;;5047872;28;20208;-73
2021/06/26 05:29:08;;;;;;;4.82;2.28;;;18.20;99.90;;;;;;5032890;28;20707;-73
2021/06/26 05:31:34;;;;;;;7.35;2.20;;;18.30;99.90;;;;;;5052411;28;20227;-73
2021/06/26 05:34:00;;;;;;;4.38;2.53;;;18.40;99.90;;;;;;5031453;28;20201;-73
2021/06/26 05:36:26;;;;;;;9.75;3.38;;;18.40;99.90;;;;;;5047406;28;20693;-73
2021/06/26 05:38:51;;;;;;;4.15;2.50;;;18.50;99.90;;;;;;5050434;28;20202;-73
2021/06/26 05:41:17;;;;;;;3.92;3.00;;;18.50;99.90;;;;;;5050958;28;20703;-73
2021/06/26 05:43:43;;;;;;;4.00;2.65;;;18.60;99.90;;;;;;5047651;28;20212;-73
2021/06/26 05:46:09;;;;;;;4.00;2.85;;;18.60;99.90;;;;;;5028684;28;20284;-73
2021/06/26 05:48:38;;;;;;;4.45;3.17;;;18.60;99.90;;;;;;5047342;28;20604;-73
2021/06/26 05:51:04;;;;;;;3.60;2.80;;;18.70;99.90;;;;;;5048036;28;20243;-73
2021/06/26 05:53:30;;;;;;;4.10;3.00;;;18.70;99.90;;;;;;5036483;28;20193;-73
2021/06/26 05:55:59;;;;;;;5.82;2.40;;;18.80;99.90;;;;;;5055514;28;20304;-73
2021/06/26 05:58:36;;;;;;;2.80;2.05;;;18.80;99.90;;;;;;5047269;28;20197;-73
2021/06/26 06:01:04;;;;;;;4.70;2.88;;;18.90;99.90;;;;;;5044473;28;20201;-73
2021/06/26 06:03:29;;;;;;;6.05;3.45;;;19.00;99.90;;;;;;5047550;28;20260;-73
2021/06/26 06:05:55;;;;;;;6.28;3.83;;;19.10;99.90;;;;;;5042499;28;20225;-73
2021/06/26 06:08:21;;;;;;;8.32;3.65;;;19.20;99.90;;;;;;5028610;28;20205;-73
2021/06/26 06:10:47;;;;;;;5.47;3.50;;;19.40;99.90;;;;;;5042462;28;20198;-73
2021/06/26 06:13:18;;;;;;;7.90;3.92;;;19.60;99.90;;;;;;5045256;28;20260;-74
2021/06/26 06:15:45;;;;;;;5.95;3.38;;;20.10;99.90;;;;;;5019534;28;20701;-73
2021/06/26 06:18:13;;;;;;;6.13;3.90;;;20.40;99.90;;;;;;5048009;28;20193;-73
2021/06/26 06:20:39;;;;;;;5.20;3.28;;;20.60;99.90;;;;;;5043537;28;20213;-73
2021/06/26 06:23:05;;;;;;;5.32;2.75;;;20.60;99.90;;;;;;5049991;28;20220;-73
2021/06/26 06:25:31;;;;;;;3.45;2.45;;;20.70;99.90;;;;;;5049072;28;20228;-73
2021/06/26 06:27:57;;;;;;;3.55;2.42;;;20.80;99.90;;;;;;5049280;28;20197;-73
2021/06/26 06:30:23;;;;;;;5.25;2.50;;;21.10;99.90;;;;;;5049695;28;20203;-72
2021/06/26 06:32:49;;;;;;;5.07;3.25;;;21.20;99.90;;;;;;5050043;28;20201;-73
2021/06/26 06:35:15;;;;;;;4.20;3.30;;;21.30;99.90;;;;;;5049305;28;20205;-73
2021/06/26 06:37:41;;;;;;;4.20;3.38;;;21.50;99.90;;;;;;5045265;28;20308;-73
2021/06/26 06:40:09;;;;;;;6.57;3.40;;;21.60;99.90;;;;;;5046580;28;20216;-73
2021/06/26 06:42:35;;;;;;;4.30;3.58;;;21.70;99.90;;;;;;5033279;28;20252;-74
2021/06/26 06:45:01;;;;;;;4.07;3.40;;;21.70;99.90;;;;;;5050782;28;20193;-73
2021/06/26 06:47:27;;;;;;;5.63;3.30;;;21.60;99.90;;;;;;5048524;28;20189;-73
2021/06/26 06:49:52;;;;;;;5.15;3.70;;;21.60;99.90;;;;;;5049369;28;20647;-73
2021/06/26 06:52:18;;;;;;;7.00;3.33;;;21.50;99.90;;;;;;5047986;28;20199;-73
2021/06/26 06:54:44;;;;;;;5.57;4.10;;;21.40;99.90;;;;;;5046763;28;20198;-73
2021/06/26 06:57:10;;;;;;;4.28;3.10;;;21.40;99.90;;;;;;5051646;28;20216;-73
2021/06/26 06:59:35;;;;;;;4.68;3.38;;;21.50;99.90;;;;;;5038595;28;20288;-73
2021/06/26 07:02:01;;;;;;;7.72;3.30;;;21.50;99.90;;;;;;5044340;28;20335;-73
2021/06/26 07:04:27;;;;;;;4.30;3.50;;;21.60;99.90;;;;;;5045947;28;21120;-73
2021/06/26 07:06:54;;;;;;;11.48;3.70;;;21.50;99.90;;;;;;5046437;28;20713;-73
2021/06/26 07:09:20;;;;;;;4.28;3.38;;;21.50;99.90;;;;;;5045377;28;20199;-73
2021/06/26 07:11:45;;;;;;;6.22;3.60;;;21.60;99.90;;;;;;5045755;28;20210;-73
2021/06/26 07:14:11;;;;;;;4.90;3.47;;;21.70;99.90;;;;;;5027703;28;20200;-73
2021/06/26 07:16:37;;;;;;;4.97;3.40;;;21.70;99.90;;;;;;5046155;28;20627;-73
2021/06/26 07:19:03;;;;;;;6.88;3.40;;;21.90;99.90;;;;;;5042392;28;20209;-73
2021/06/26 07:21:29;;;;;;;4.13;3.13;;;22.10;99.90;;;;;;5046963;28;20197;-73
2021/06/26 07:23:54;;;;;;;5.20;3.10;;;22.30;99.90;;;;;;5045446;28;20200;-73
2021/06/26 07:26:20;;;;;;;4.18;3.33;;;22.60;99.90;;;;;;5043816;28;20198;-73
2021/06/26 07:28:46;;;;;;;3.97;3.28;;;22.80;99.90;;;;;;5028202;28;20287;-72
2021/06/26 07:31:12;;;;;;;5.95;3.60;;;22.80;99.90;;;;;;5042606;28;20206;-74
2021/06/26 07:33:38;;;;;;;3.90;3.22;;;22.60;99.90;;;;;;5026292;28;20543;-73
2021/06/26 07:36:04;;;;;;;3.70;3.13;;;22.60;99.90;;;;;;5045414;28;20196;-71
2021/06/26 07:38:30;;;;;;;3.88;3.33;;;22.70;99.90;;;;;;5045698;28;20211;-74
2021/06/26 07:40:56;;;;;;;6.68;3.40;;;22.80;99.90;;;;;;5043360;28;20683;-72
2021/06/26 07:43:21;;;;;;;4.60;3.58;;;22.70;99.90;;;;;;5045718;28;20279;-72
2021/06/26 07:45:47;;;;;;;7.50;3.28;;;22.70;99.90;;;;;;5042783;28;20201;-74
2021/06/26 07:48:13;;;;;;;5.18;3.65;;;22.70;99.90;;;;;;5043828;28;20213;-73
2021/06/26 07:50:38;;;;;;;5.13;3.55;;;22.60;99.90;;;;;;5044180;28;20201;-72
2021/06/26 07:53:04;;;;;;;4.47;3.35;;;22.60;99.90;;;;;;5043730;28;20674;-73
2021/06/26 07:55:31;;;;;;;7.43;3.70;;;22.50;99.90;;;;;;5026449;28;20250;-73
2021/06/26 07:57:57;;;;;;;5.07;3.30;;;22.30;99.90;;;;;;5044879;28;20201;-72
2021/06/26 08:00:23;;;;;;;6.60;3.55;;;22.20;99.90;;;;;;5043696;28;20205;-71
2021/06/26 08:02:48;;;;;;;4.30;3.20;;;22.00;99.90;;;;;;5030898;28;20666;-73
2021/06/26 08:05:14;;;;;;;5.20;2.80;;;21.80;99.90;;;;;;5043086;28;20209;-73
2021/06/26 08:07:39;;;;;;;3.45;2.60;;;21.60;99.90;;;;;;5045110;28;20197;-73
2021/06/26 08:10:06;;;;;;;5.30;3.30;;;21.60;99.90;;;;;;5042829;28;20265;-73
2021/06/26 08:12:33;;;;;;;4.78;3.42;;;21.40;99.90;;;;;;5045507;28;20202;-73
2021/06/26 08:15:01;;;;;;;7.15;4.03;;;21.30;99.90;;;;;;5049740;28;20497;-73
2021/06/26 08:17:27;;;;;;;4.80;3.70;;;21.30;99.90;;;;;;5026305;28;20232;-73
2021/06/26 08:19:53;;;;;;;4.75;3.50;;;21.40;99.90;;;;;;5025871;28;21041;-73
2021/06/26 08:22:19;;;;;;;4.85;3.60;;;21.50;99.90;;;;;;5044173;28;20225;-73
2021/06/26 08:24:45;;;;;;;5.05;3.70;;;21.50;99.90;;;;;;5027046;28;20627;-73
2021/06/26 08:27:10;;;;;;;4.25;3.10;;;21.60;99.90;;;;;;5044282;28;20197;-72
2021/06/26 08:29:36;;;;;;;4.63;3.60;;;21.80;99.90;;;;;;5043831;28;20662;-73
2021/06/26 08:32:03;;;;;;;5.25;3.50;;;21.80;99.90;;;;;;5045554;28;20340;-73
2021/06/26 08:34:29;;;;;;;4.30;3.50;;;22.00;99.90;;;;;;5043638;28;20200;-73
2021/06/26 08:36:55;;;;;;;4.50;3.78;;;22.20;99.90;;;;;;5045958;28;20193;-74
2021/06/26 08:39:21;;;;;;;4.88;3.63;;;22.50;99.90;;;;;;5041212;28;20265;-73
2021/06/26 08:41:48;;;;;;;6.45;3.50;;;22.90;99.90;;;;;;5044963;28;20210;-73
2021/06/26 08:44:17;;;;;;;6.50;3.60;;;23.10;99.90;;;;;;5046199;28;20200;-72
2021/06/26 08:46:49;;;;;;;4.07;3.45;;;23.50;99.90;;;;;;5042665;28;20855;-73
2021/06/26 08:49:15;;;;;;;4.25;3.45;;;24.20;99.90;;;;;;5045953;28;20193;-73
2021/06/26 08:51:42;;;;;;;5.82;3.85;;;24.30;99.90;;;;;;5049424;28;20205;-72
2021/06/26 08:54:12;;;;;;;7.40;4.05;;;24.30;99.90;;;;;;5025430;28;20205;-72
2021/06/26 08:56:38;;;;;;;4.80;3.60;;;24.10;99.90;;;;;;5019644;28;20204;-73
2021/06/26 08:59:04;;;;;;;3.85;3.28;;;24.00;99.90;;;;;;5052521;28;20193;-73
2021/06/26 09:01:30;;;;;;;4.32;3.40;;;24.10;99.90;;;;;;5042207;28;20223;-73
2021/06/26 09:04:19;;;;;;;4.18;3.67;;;24.20;99.90;;;;;;5043815;28;20217;-73
2021/06/26 09:06:52;;;;;;;9.75;3.80;;;24.20;99.90;;;;;;5040295;28;20208;-73
2021/06/26 09:09:37;;;;;;;4.22;3.60;;;24.10;99.90;;;;;;5042594;28;20194;-73
2021/06/26 09:12:07;;;;;;;4.50;3.78;;;24.00;99.90;;;;;;5043047;28;20267;-73
2021/06/26 09:14:35;;;;;;;3.78;3.20;;;23.80;99.90;;;;;;5048067;28;20201;-74
2021/06/26 09:17:02;;;;;;;50.90;4.43;;;24.00;99.90;;;;;;5043018;28;20690;-74
2021/06/26 09:19:29;;;;;;;5.97;3.60;;;24.50;99.90;;;;;;5043217;28;20209;-74
2021/06/26 09:22:09;;;;;;;8.00;3.60;;;25.40;99.90;;;;;;5043077;28;20202;-73
2021/06/26 09:24:46;;;;;;;7.90;3.60;;;25.60;99.90;;;;;;5038586;28;20201;-73
2021/06/26 09:27:14;;;;;;;5.28;3.22;;;25.90;99.90;;;;;;5043569;28;20279;-72
2021/06/26 09:30:06;;;;;;;4.88;3.05;;;25.80;99.90;;;;;;5046812;28;20196;-74
2021/06/26 09:32:32;;;;;;;4.03;3.38;;;26.20;99.90;;;;;;5039403;28;20607;-74
2021/06/26 09:34:58;;;;;;;11.48;7.63;;;26.10;99.90;;;;;;5043086;28;20229;-74
2021/06/26 09:37:27;;;;;;;4.07;2.75;;;26.70;99.90;;;;;;5045730;28;20203;-73
2021/06/26 09:39:57;;;;;;;4.45;3.05;;;26.60;99.90;;;;;;5026395;28;20236;-73
2021/06/26 09:42:30;;;;;;;13.40;11.30;;;26.30;99.90;;;;;;5045472;28;20199;-73
2021/06/26 09:45:07;;;;;;;4.45;2.97;;;25.90;99.90;;;;;;5049914;28;20242;-73
2021/06/26 09:47:46;;;;;;;3.92;3.30;;;25.80;99.90;;;;;;5040748;28;20259;-73
2021/06/26 09:50:26;;;;;;;3.85;3.08;;;25.50;99.90;;;;;;5045176;28;20204;-72
2021/06/26 09:53:02;;;;;;;5.90;3.33;;;25.20;99.90;;;;;;5039536;28;20236;-73
2021/06/26 09:55:35;;;;;;;4.00;3.40;;;25.20;99.90;;;;;;5046051;28;20196;-73
2021/06/26 09:58:07;;;;;;;6.28;3.70;;;24.90;99.90;;;;;;5044635;28;20684;-72
2021/06/26 10:00:34;;;;;;;5.15;3.25;;;24.90;99.90;;;;;;5049139;28;20572;-73
2021/06/26 10:03:00;;;;;;;4.30;3.30;;;24.90;99.90;;;;;;5053363;28;20350;-73
2021/06/26 10:05:26;;;;;;;4.97;3.33;;;24.90;99.90;;;;;;5054007;28;20948;-72
2021/06/26 10:07:53;;;;;;;4.13;3.53;;;24.90;99.90;;;;;;5050442;28;20555;-73
2021/06/26 10:10:23;;;;;;;5.85;3.45;;;25.00;99.90;;;;;;5031910;28;20783;-73
2021/06/26 10:12:52;;;;;;;5.80;3.45;;;25.00;99.90;;;;;;5050955;28;20204;-73
2021/06/26 10:15:19;;;;;;;4.30;3.42;;;25.00;99.90;;;;;;5053819;28;20679;-73
2021/06/26 10:17:45;;;;;;;7.07;3.53;;;25.20;99.90;;;;;;5040871;28;20275;-72
2021/06/26 10:20:14;;;;;;;4.32;3.50;;;25.20;99.90;;;;;;5054374;28;20327;-72
2021/06/26 10:23:01;;;;;;;5.10;3.30;;;25.30;99.90;;;;;;5036263;28;20228;-72
2021/06/26 10:25:39;;;;;;;5.00;3.28;;;25.30;99.90;;;;;;5048316;28;20272;-73
2021/06/26 10:28:12;;;;;;;4.15;3.10;;;25.40;99.90;;;;;;5058976;28;20594;-71
2021/06/26 10:30:38;;;;;;;6.45;3.55;;;25.50;99.90;;;;;;5048601;28;20227;-73
2021/06/26 10:33:11;;;;;;;3.40;3.03;;;25.40;99.90;;;;;;5052516;28;21289;-73
2021/06/26 10:35:50;;;;;;;4.80;3.35;;;25.10;99.90;;;;;;5053172;28;20856;-73
2021/06/26 10:38:15;;;;;;;6.70;3.40;;;24.80;99.90;;;;;;5051376;28;20215;-73
2021/06/26 10:40:52;;;;;;;4.30;3.30;;;24.60;99.90;;;;;;5053727;28;20208;-73
2021/06/26 10:43:28;;;;;;;4.32;3.47;;;24.20;99.90;;;;;;5044343;28;20193;-73
2021/06/26 10:46:08;;;;;;;6.53;3.65;;;23.70;99.90;;;;;;5044785;28;20236;-73
2021/06/26 10:48:36;;;;;;;4.38;3.45;;;23.30;99.90;;;;;;5048103;28;20663;-73
2021/06/26 10:51:01;;;;;;;4.85;3.35;;;23.10;99.90;;;;;;5050211;28;20607;-72
2021/06/26 10:53:33;;;;;;;3.95;3.42;;;23.10;99.90;;;;;;5049909;28;20212;-73
2021/06/26 10:56:08;;;;;;;4.30;3.28;;;23.20;99.90;;;;;;5029038;28;20221;-73
2021/06/26 10:58:38;;;;;;;4.90;3.53;;;23.90;99.90;;;;;;5049484;28;20708;-73
2021/06/26 11:01:14;;;;;;;7.03;3.53;;;25.00;99.90;;;;;;5047278;28;20588;-72
2021/06/26 11:03:40;;;;;;;3.60;3.13;;;26.30;99.90;;;;;;5046191;28;20216;-73
2021/06/26 11:06:19;;;;;;;6.63;3.40;;;27.20;99.90;;;;;;5046480;28;20289;-70
2021/06/26 11:09:00;;;;;;;7.97;3.03;;;28.10;99.90;;;;;;5041551;28;20188;-70
2021/06/26 11:11:28;;;;;;;3.15;2.85;;;28.50;99.90;;;;;;5043576;28;20319;-74
2021/06/26 11:14:04;;;;;;;3.40;2.83;;;28.40;99.90;;;;;;5046093;28;20213;-72
2021/06/26 11:16:30;;;;;;;4.65;2.90;;;28.70;99.90;;;;;;5046117;28;20203;-73
2021/06/26 11:18:57;;;;;;;4.00;3.10;;;28.80;99.90;;;;;;5047424;28;20679;-72
2021/06/26 11:21:23;;;;;;;5.68;2.80;;;29.20;99.90;;;;;;5031930;28;20295;-74
2021/06/26 11:23:50;;;;;;;4.15;2.70;;;30.10;99.90;;;;;;5048645;28;20319;-74
2021/06/26 11:26:16;;;;;;;4.18;2.63;;;29.70;99.90;;;;;;5048521;28;20201;-72
2021/06/26 11:28:43;;;;;;;3.83;2.83;;;29.40;99.90;;;;;;5032545;28;20829;-72
2021/06/26 11:31:09;;;;;;;7.05;3.00;;;28.90;99.90;;;;;;5041636;28;20956;-72
2021/06/26 11:33:39;;;;;;;3.22;2.60;;;28.50;99.90;;;;;;5048571;28;20211;-72
2021/06/26 11:36:12;;;;;;;5.43;2.75;;;28.30;99.90;;;;;;5044366;28;20275;-72
2021/06/26 11:38:38;;;;;;;4.50;2.78;;;28.40;99.90;;;;;;5049474;28;20207;-72
2021/06/26 11:41:06;;;;;;;3.08;2.72;;;28.20;99.90;;;;;;5051060;28;20201;-73
2021/06/26 11:43:33;;;;;;;3.38;2.78;;;27.80;99.90;;;;;;5049184;28;20745;-73
2021/06/26 11:46:01;;;;;;;2.92;2.58;;;28.20;99.90;;;;;;5046708;28;20621;-73
2021/06/26 11:48:27;;;;;;;3.22;2.63;;;28.80;99.90;;;;;;5045496;28;20647;-72
2021/06/26 11:50:55;;;;;;;3.42;2.70;;;29.00;99.90;;;;;;5049235;28;20189;-73
2021/06/26 11:53:23;;;;;;;11.13;2.80;;;29.30;99.90;;;;;;5045306;28;20807;-73
2021/06/26 11:56:03;;;;;;;3.88;2.92;;;29.90;99.90;;;;;;5048455;28;20253;-73
2021/06/26 11:58:46;;;;;;;3.35;2.60;;;29.90;99.90;;;;;;5047030;28;20212;-73
2021/06/26 12:01:24;;;;;;;132.27;6.22;;;29.90;99.90;;;;;;5030119;28;20223;-73
2021/06/26 12:03:49;;;;;;;3.92;2.42;;;30.20;99.30;;;;;;5043564;28;20220;-71
2021/06/26 12:06:15;;;;;;;9.80;2.78;;;29.60;97.60;;;;;;5044857;28;20204;-73
2021/06/26 12:08:54;;;;;;;7.35;2.50;;;29.40;99.40;;;;;;5043263;28;20205;-72
2021/06/26 12:11:29;;;;;;;4.10;2.47;;;29.90;99.70;;;;;;5045026;28;20368;-72
2021/06/26 12:13:57;;;;;;;3.45;2.80;;;30.10;98.60;;;;;;5043784;28;20845;-72
2021/06/26 12:16:24;;;;;;;5.13;2.60;;;30.40;98.20;;;;;;5043770;28;20209;-73
2021/06/26 12:18:56;;;;;;;4.70;2.60;;;30.50;97.10;;;;;;5040240;28;20701;-72
2021/06/26 12:21:27;;;;;;;3.05;2.60;;;30.40;97.50;;;;;;5024494;28;20212;-72
2021/06/26 12:23:55;;;;;;;6.55;2.60;;;29.70;95.80;;;;;;5042874;28;20221;-72
2021/06/26 12:26:25;;;;;;;6.43;2.80;;;28.50;97.80;;;;;;5043956;28;20378;-72
2021/06/26 12:28:52;;;;;;;3.35;2.50;;;27.80;99.90;;;;;;5028525;28;20211;-72
2021/06/26 12:31:19;;;;;;;4.25;2.53;;;28.10;99.90;;;;;;5044664;28;20283;-72
2021/06/26 12:33:47;;;;;;;3.33;2.53;;;28.10;99.90;;;;;;5042935;28;20205;-72
2021/06/26 12:36:20;;;;;;;2.90;2.60;;;28.50;99.90;;;;;;5044983;28;20971;-73
2021/06/26 12:38:47;;;;;;;4.72;2.80;;;29.00;99.90;;;;;;5044397;28;20219;-72
2021/06/26 12:41:25;;;;;;;5.20;2.70;;;29.90;96.30;;;;;;5045002;28;20208;-72
2021/06/26 12:43:51;;;;;;;3.58;2.65;;;30.00;95.20;;;;;;5041545;28;20188;-72
2021/06/26 12:46:17;;;;;;;10.27;2.85;;;30.10;96.10;;;;;;5037977;28;20508;-72
2021/06/26 12:48:49;;;;;;;3.72;2.70;;;30.30;95.60;;;;;;5040712;28;20696;-73